sensor_id;sensor_type;location;lat;lon;timestamp;pressure;altitude;pressure_sealevel;temperature;humidity
50087;BME280;35967;50.718;7.050;2023-04-08T00:09:17;101328.19;;;8.94;100.00
50087;BME280;35967;50.718;7.050;2023-04-08T00:19:20;101333.34;;;8.93;100.00
50087;BME280;35967;50.718;7.050;2023-04-08T00:29:24;101329.06;;;8.92;100.00
50087;BME280;35967;50.718;7.050;2023-04-08T00:39:27;101341.88;;;8.89;100.00
50087;BME280;35967;50.718;7.050;2023-04-08T00:49:32;101334.19;;;8.86;100.00
50087;BME280;35967;50.718;7.050;2023-04-08T00:59:35;101342.75;;;8.91;100.00
50087;BME280;35967;50.718;7.050;2023-04-08T01:09:50;101348.78;;;8.83;100.00
50087;BME280;35967;50.718;7.050;2023-04-08T01:19:56;101347.03;;;8.87;100.00
50087;BME280;35967;50.718;7.050;2023-04-08T01:30:03;101343.59;;;8.87;100.00
50087;BME280;35967;50.718;7.050;2023-04-08T01:40:09;101358.16;;;8.88;100.00
50087;BME280;35967;50.718;7.050;2023-04-08T01:50:15;101355.56;;;8.94;100.00
50087;BME280;35967;50.718;7.050;2023-04-08T02:00:25;101352.19;;;8.87;100.00
50087;BME280;35967;50.718;7.050;2023-04-08T02:10:30;101357.34;;;8.78;100.00
50087;BME280;35967;50.718;7.050;2023-04-08T02:20:37;101366.72;;;8.88;100.00
50087;BME280;35967;50.718;7.050;2023-04-08T02:30:45;101369.31;;;8.80;100.00
50087;BME280;35967;50.718;7.050;2023-04-08T02:40:50;101375.28;;;8.86;100.00
50087;BME280;35967;50.718;7.050;2023-04-08T02:50:54;101374.44;;;8.83;100.00
50087;BME280;35967;50.718;7.050;2023-04-08T03:00:58;101372.72;;;8.82;100.00
50087;BME280;35967;50.718;7.050;2023-04-08T03:11:02;101367.63;;;8.73;100.00
50087;BME280;35967;50.718;7.050;2023-04-08T03:21:06;101367.63;;;8.64;100.00
50087;BME280;35967;50.718;7.050;2023-04-08T03:31:10;101385.59;;;8.65;100.00
50087;BME280;35967;50.718;7.050;2023-04-08T03:41:13;101374.47;;;8.71;100.00
50087;BME280;35967;50.718;7.050;2023-04-08T03:51:18;101380.44;;;8.70;100.00
50087;BME280;35967;50.718;7.050;2023-04-08T04:01:21;101381.31;;;8.67;100.00
50087;BME280;35967;50.718;7.050;2023-04-08T04:11:26;101390.72;;;8.65;100.00
50087;BME280;35967;50.718;7.050;2023-04-08T04:21:29;101390.75;;;8.64;100.00
50087;BME280;35967;50.718;7.050;2023-04-08T04:31:33;101390.72;;;8.70;100.00
50087;BME280;35967;50.718;7.050;2023-04-08T04:41:36;101406.09;;;8.75;100.00
50087;BME280;35967;50.718;7.050;2023-04-08T04:51:42;101407.00;;;8.60;100.00
50087;BME280;35967;50.718;7.050;2023-04-08T05:01:45;101411.28;;;8.64;100.00
50087;BME280;35967;50.718;7.050;2023-04-08T05:11:50;101415.53;;;8.76;100.00
50087;BME280;35967;50.718;7.050;2023-04-08T05:21:53;101418.06;;;8.77;100.00
50087;BME280;35967;50.718;7.050;2023-04-08T05:31:58;101424.91;;;8.83;100.00
50087;BME280;35967;50.718;7.050;2023-04-08T05:42:02;101429.22;;;8.79;100.00
50087;BME280;35967;50.718;7.050;2023-04-08T05:52:06;101442.91;;;8.84;100.00
50087;BME280;35967;50.718;7.050;2023-04-08T06:02:09;101453.16;;;8.91;100.00
50087;BME280;35967;50.718;7.050;2023-04-08T06:12:13;101455.72;;;8.91;100.00
50087;BME280;35967;50.718;7.050;2023-04-08T06:22:17;101467.69;;;8.86;100.00
50087;BME280;35967;50.718;7.050;2023-04-08T06:32:21;101488.25;;;8.87;100.00
50087;BME280;35967;50.718;7.050;2023-04-08T06:42:24;101484.81;;;8.91;100.00
50087;BME280;35967;50.718;7.050;2023-04-08T06:52:41;101484.81;;;8.85;100.00
50087;BME280;35967;50.718;7.050;2023-04-08T07:02:44;101489.94;;;8.90;100.00
50087;BME280;35967;50.718;7.050;2023-04-08T07:12:49;101498.50;;;8.90;100.00
50087;BME280;35967;50.718;7.050;2023-04-08T07:22:53;101500.22;;;8.94;100.00
50087;BME280;35967;50.718;7.050;2023-04-08T07:32:58;101517.28;;;9.20;100.00
50087;BME280;35967;50.718;7.050;2023-04-08T07:43:01;101537.81;;;9.23;100.00
50087;BME280;35967;50.718;7.050;2023-04-08T07:53:06;101542.06;;;9.38;100.00
50087;BME280;35967;50.718;7.050;2023-04-08T08:03:09;101538.66;;;9.39;100.00
50087;BME280;35967;50.718;7.050;2023-04-08T08:13:13;101554.03;;;9.38;100.00
50087;BME280;35967;50.718;7.050;2023-04-08T08:23:19;101563.47;;;9.37;100.00
50087;BME280;35967;50.718;7.050;2023-04-08T08:33:23;101564.31;;;9.49;100.00
50087;BME280;35967;50.718;7.050;2023-04-08T08:43:28;101566.00;;;9.53;100.00
50087;BME280;35967;50.718;7.050;2023-04-08T08:53:36;101579.69;;;9.66;100.00
50087;BME280;35967;50.718;7.050;2023-04-08T09:03:39;101587.34;;;9.78;100.00
50087;BME280;35967;50.718;7.050;2023-04-08T09:13:44;101594.22;;;9.73;100.00
50087;BME280;35967;50.718;7.050;2023-04-08T09:23:48;101598.47;;;9.82;100.00
50087;BME280;35967;50.718;7.050;2023-04-08T09:33:56;101597.59;;;9.90;100.00
50087;BME280;35967;50.718;7.050;2023-04-08T09:44:02;101602.69;;;10.04;100.00
50087;BME280;35967;50.718;7.050;2023-04-08T09:54:11;101606.06;;;10.09;99.75
50087;BME280;35967;50.718;7.050;2023-04-08T10:04:19;101606.00;;;10.25;98.18
50087;BME280;35967;50.718;7.050;2023-04-08T10:14:24;101598.22;;;10.39;98.16
50087;BME280;35967;50.718;7.050;2023-04-08T10:24:29;101604.22;;;10.33;97.33
50087;BME280;35967;50.718;7.050;2023-04-08T10:34:34;101602.50;;;10.41;97.01
50087;BME280;35967;50.718;7.050;2023-04-08T10:44:43;101596.44;;;10.49;96.99
50087;BME280;35967;50.718;7.050;2023-04-08T10:54:48;101594.81;;;10.40;94.56
50087;BME280;35967;50.718;7.050;2023-04-08T11:04:53;101591.91;;;10.82;96.03
50087;BME280;35967;50.718;7.050;2023-04-08T11:14:57;101595.59;;;10.48;91.17
50087;BME280;35967;50.718;7.050;2023-04-08T11:25:01;101588.59;;;10.67;91.61
50087;BME280;35967;50.718;7.050;2023-04-08T11:35:06;101580.69;;;10.92;89.97
50087;BME280;35967;50.718;7.050;2023-04-08T11:45:10;101579.38;;;11.36;87.58
50087;BME280;35967;50.718;7.050;2023-04-08T11:55:23;101571.56;;;11.43;84.82
50087;BME280;35967;50.718;7.050;2023-04-08T12:05:26;101583.22;;;10.95;80.65
50087;BME280;35967;50.718;7.050;2023-04-08T12:15:31;101575.50;;;10.94;81.37
50087;BME280;35967;50.718;7.050;2023-04-08T12:25:34;101574.84;;;10.73;81.24
50087;BME280;35967;50.718;7.050;2023-04-08T12:35:39;101579.91;;;10.78;79.72
50087;BME280;35967;50.718;7.050;2023-04-08T12:45:43;101590.25;;;10.75;79.92
50087;BME280;35967;50.718;7.050;2023-04-08T12:55:47;101586.72;;;10.88;79.98
50087;BME280;35967;50.718;7.050;2023-04-08T13:05:51;101577.25;;;10.90;79.19
50087;BME280;35967;50.718;7.050;2023-04-08T13:15:55;101580.50;;;11.12;79.69
50087;BME280;35967;50.718;7.050;2023-04-08T13:25:58;101582.09;;;11.23;83.73
50087;BME280;35967;50.718;7.050;2023-04-08T13:36:04;101568.28;;;11.30;83.45
50087;BME280;35967;50.718;7.050;2023-04-08T13:46:07;101570.63;;;11.50;83.05
50087;BME280;35967;50.718;7.050;2023-04-08T13:56:12;101570.91;;;11.24;79.41
50087;BME280;35967;50.718;7.050;2023-04-08T14:06:15;101567.25;;;11.45;80.31
50087;BME280;35967;50.718;7.050;2023-04-08T14:16:20;101562.00;;;11.54;79.62
50087;BME280;35967;50.718;7.050;2023-04-08T14:26:28;101562.94;;;11.47;80.07
50087;BME280;35967;50.718;7.050;2023-04-08T14:36:33;101565.19;;;11.76;79.76
50087;BME280;35967;50.718;7.050;2023-04-08T14:46:36;101563.66;;;11.58;79.62
50087;BME280;35967;50.718;7.050;2023-04-08T14:56:41;101569.81;;;11.46;80.59
50087;BME280;35967;50.718;7.050;2023-04-08T15:06:44;101563.81;;;11.46;76.80
50087;BME280;35967;50.718;7.050;2023-04-08T15:16:49;101562.13;;;11.42;76.19
50087;BME280;35967;50.718;7.050;2023-04-08T15:26:53;101569.03;;;11.41;75.95
50087;BME280;35967;50.718;7.050;2023-04-08T15:36:58;101571.50;;;11.50;76.14
50087;BME280;35967;50.718;7.050;2023-04-08T15:47:02;101564.69;;;11.45;74.78
50087;BME280;35967;50.718;7.050;2023-04-08T15:57:07;101574.88;;;11.57;76.12
50087;BME280;35967;50.718;7.050;2023-04-08T16:07:11;101583.50;;;11.53;75.66
50087;BME280;35967;50.718;7.050;2023-04-08T16:17:15;101577.53;;;11.49;73.48
50087;BME280;35967;50.718;7.050;2023-04-08T16:27:18;101575.09;;;11.37;73.40
50087;BME280;35967;50.718;7.050;2023-04-08T16:37:26;101578.44;;;11.45;74.86
50087;BME280;35967;50.718;7.050;2023-04-08T16:47:29;101576.81;;;11.36;73.55
50087;BME280;35967;50.718;7.050;2023-04-08T16:57:33;101578.59;;;11.28;75.37
50087;BME280;35967;50.718;7.050;2023-04-08T17:07:37;101592.41;;;11.23;75.71
50087;BME280;35967;50.718;7.050;2023-04-08T17:17:41;101588.91;;;11.31;78.04
50087;BME280;35967;50.718;7.050;2023-04-08T17:27:44;101593.34;;;11.17;78.20
50087;BME280;35967;50.718;7.050;2023-04-08T17:37:49;101572.16;;;10.84;79.55
50087;BME280;35967;50.718;7.050;2023-04-08T17:47:52;101571.25;;;10.91;79.06
50087;BME280;35967;50.718;7.050;2023-04-08T17:57:56;101588.41;;;10.92;80.56
50087;BME280;35967;50.718;7.050;2023-04-08T18:08:00;101599.66;;;10.80;80.94
50087;BME280;35967;50.718;7.050;2023-04-08T18:18:04;101611.75;;;10.69;82.00
50087;BME280;35967;50.718;7.050;2023-04-08T18:28:07;101616.94;;;10.64;82.94
50087;BME280;35967;50.718;7.050;2023-04-08T18:38:12;101631.56;;;10.59;83.55
50087;BME280;35967;50.718;7.050;2023-04-08T18:48:15;101625.78;;;10.12;84.18
50087;BME280;35967;50.718;7.050;2023-04-08T18:58:20;101653.13;;;10.39;84.02
50087;BME280;35967;50.718;7.050;2023-04-08T19:08:23;101660.84;;;10.30;83.39
50087;BME280;35967;50.718;7.050;2023-04-08T19:18:27;101653.94;;;10.51;87.85
50087;BME280;35967;50.718;7.050;2023-04-08T19:28:31;101670.50;;;9.77;87.66
50087;BME280;35967;50.718;7.050;2023-04-08T19:38:35;101669.56;;;9.98;84.85
50087;BME280;35967;50.718;7.050;2023-04-08T19:48:38;101667.00;;;9.93;86.26
50087;BME280;35967;50.718;7.050;2023-04-08T19:58:43;101669.66;;;9.70;87.60
50087;BME280;35967;50.718;7.050;2023-04-08T20:08:46;101679.88;;;9.83;87.11
50087;BME280;35967;50.718;7.050;2023-04-08T20:18:52;101681.66;;;9.54;88.97
50087;BME280;35967;50.718;7.050;2023-04-08T20:28:55;101673.91;;;9.87;88.63
50087;BME280;35967;50.718;7.050;2023-04-08T20:39:01;101685.91;;;9.74;88.52
50087;BME280;35967;50.718;7.050;2023-04-08T20:49:05;101669.66;;;9.75;87.83
50087;BME280;35967;50.718;7.050;2023-04-08T20:59:10;101673.06;;;9.74;88.01
50087;BME280;35967;50.718;7.050;2023-04-08T21:09:13;101667.97;;;9.58;87.74
50087;BME280;35967;50.718;7.050;2023-04-08T21:19:17;101668.81;;;9.65;89.16
50087;BME280;35967;50.718;7.050;2023-04-08T21:29:20;101669.66;;;9.64;89.63
50087;BME280;35967;50.718;7.050;2023-04-08T21:39:26;101671.38;;;9.65;89.80
50087;BME280;35967;50.718;7.050;2023-04-08T21:49:29;101677.41;;;9.50;90.59
50087;BME280;35967;50.718;7.050;2023-04-08T21:59:34;101674.81;;;9.47;90.84
50087;BME280;35967;50.718;7.050;2023-04-08T22:09:37;101675.69;;;9.49;89.77
50087;BME280;35967;50.718;7.050;2023-04-08T22:19:42;101686.81;;;9.37;91.79
50087;BME280;35967;50.718;7.050;2023-04-08T22:29:45;101682.53;;;9.50;91.56
50087;BME280;35967;50.718;7.050;2023-04-08T22:39:49;101673.97;;;9.48;91.94
50087;BME280;35967;50.718;7.050;2023-04-08T22:49:52;101677.41;;;9.41;92.41
50087;BME280;35967;50.718;7.050;2023-04-08T22:59:57;101683.41;;;9.29;92.07
50087;BME280;35967;50.718;7.050;2023-04-08T23:10:02;101687.69;;;9.13;93.48
50087;BME280;35967;50.718;7.050;2023-04-08T23:20:08;101677.41;;;9.27;92.91
50087;BME280;35967;50.718;7.050;2023-04-08T23:30:11;101685.09;;;9.16;93.06
50087;BME280;35967;50.718;7.050;2023-04-08T23:40:15;101679.09;;;9.14;93.63
